createdAt,value
2022-10-21T00:01:03.439Z,0.85
2022-10-21T00:03:32.059Z,0.78
2022-10-21T00:05:59.989Z,0.81
2022-10-21T00:08:28.063Z,0.88
2022-10-21T00:10:59.876Z,0.91
2022-10-21T00:13:30.129Z,0.88
2022-10-21T00:16:17.077Z,0.94
2022-10-21T00:18:46.981Z,0.89
2022-10-21T00:21:18.240Z,1.03
2022-10-21T00:23:50.392Z,1.09
2022-10-21T00:26:19.453Z,0.98
2022-10-21T00:28:47.358Z,0.90
2022-10-21T00:31:16.248Z,1.20
2022-10-21T00:33:44.529Z,1.49
2022-10-21T00:36:16.197Z,1.55
2022-10-21T00:38:48.906Z,1.59
2022-10-21T00:41:18.715Z,1.56
2022-10-21T00:43:57.507Z,1.57
2022-10-21T00:46:42.599Z,1.56
2022-10-21T00:49:55.790Z,1.45
2022-10-21T00:52:24.483Z,1.52
2022-10-21T00:54:59.025Z,1.20
2022-10-21T00:57:28.194Z,1.27
2022-10-21T01:00:02.650Z,1.55
2022-10-21T01:02:31.391Z,1.51
2022-10-21T01:05:03.454Z,1.49
2022-10-21T01:07:31.648Z,1.47
2022-10-21T01:09:59.968Z,1.54
2022-10-21T01:13:09.470Z,1.55
2022-10-21T01:15:52.411Z,1.43
2022-10-21T01:18:39.585Z,1.59
2022-10-21T01:21:39.759Z,1.45
2022-10-21T01:24:19.713Z,1.58
2022-10-21T01:27:00.094Z,1.65
2022-10-21T01:29:27.917Z,1.65
2022-10-21T01:32:14.587Z,1.72
2022-10-21T01:34:50.389Z,1.62
2022-10-21T01:37:30.350Z,1.72
2022-10-21T01:40:25.414Z,1.57
2022-10-21T01:42:57.978Z,1.54
2022-10-21T01:45:38.423Z,1.58
2022-10-21T01:48:13.508Z,1.51
2022-10-21T01:51:12.026Z,1.57
2022-10-21T01:53:47.427Z,1.56
2022-10-21T01:56:17.837Z,1.58
2022-10-21T01:58:49.186Z,1.60
2022-10-21T02:01:18.504Z,1.55
2022-10-21T02:03:53.431Z,1.58
2022-10-21T02:06:21.508Z,1.56
2022-10-21T02:08:49.858Z,1.56
2022-10-21T02:11:19.438Z,1.51
2022-10-21T02:13:59.891Z,1.55
2022-10-21T02:16:33.152Z,1.56
2022-10-21T02:19:01.170Z,1.60
2022-10-21T02:21:36.127Z,1.65
2022-10-21T02:24:45.095Z,1.67
2022-10-21T02:27:13.389Z,1.71
2022-10-21T02:29:44.230Z,1.72
2022-10-21T02:33:00.084Z,1.71
2022-10-21T02:35:30.825Z,1.70
2022-10-21T02:38:20.406Z,1.69
2022-10-21T02:41:03.030Z,1.64
2022-10-21T02:43:39.131Z,1.50
2022-10-21T02:46:10.118Z,1.55
2022-10-21T02:48:40.023Z,1.35
2022-10-21T02:51:11.688Z,1.29
2022-10-21T02:53:39.520Z,1.44
2022-10-21T02:56:07.600Z,1.43
2022-10-21T02:58:35.873Z,1.37
2022-10-21T03:01:04.471Z,1.49
2022-10-21T03:03:32.409Z,1.40
2022-10-21T03:06:00.731Z,1.48
2022-10-21T03:08:28.654Z,1.52
2022-10-21T03:10:56.643Z,1.57
2022-10-21T03:13:24.956Z,1.58
2022-10-21T03:15:53.078Z,1.46
2022-10-21T03:18:21.000Z,1.56
2022-10-21T03:20:51.127Z,1.50
2022-10-21T03:23:20.213Z,1.59
2022-10-21T03:25:48.069Z,1.66
2022-10-21T03:28:18.489Z,1.53
2022-10-21T03:30:46.236Z,1.67
2022-10-21T03:33:14.070Z,1.73
2022-10-21T03:35:45.423Z,1.66
2022-10-21T03:38:13.217Z,1.72
2022-10-21T03:40:41.096Z,1.62
2022-10-21T03:43:12.379Z,1.42
2022-10-21T03:45:40.070Z,1.25
2022-10-21T03:48:08.265Z,1.07
2022-10-21T03:50:36.584Z,0.99
2022-10-21T03:53:13.874Z,0.87
2022-10-21T03:55:47.430Z,0.70
2022-10-21T03:58:15.209Z,0.83
2022-10-21T04:00:43.128Z,0.78
2022-10-21T04:03:14.206Z,0.82
2022-10-21T04:05:41.846Z,0.90
2022-10-21T04:08:09.649Z,1.07
2022-10-21T04:10:37.791Z,1.07
2022-10-21T04:13:05.486Z,1.18
2022-10-21T04:15:33.326Z,1.11
2022-10-21T04:18:01.853Z,1.09
2022-10-21T04:20:30.050Z,1.21
2022-10-21T04:22:59.055Z,1.34
2022-10-21T04:25:30.720Z,1.33
2022-10-21T04:27:58.464Z,1.39
2022-10-21T04:30:26.675Z,1.52
2022-10-21T04:32:55.317Z,1.64
2022-10-21T04:35:24.052Z,1.65
2022-10-21T04:37:54.969Z,1.68
2022-10-21T04:40:24.106Z,1.55
2022-10-21T04:42:54.718Z,1.78
2022-10-21T04:45:27.435Z,1.57
2022-10-21T04:47:58.633Z,1.77
2022-10-21T04:50:27.534Z,1.81
2022-10-21T04:53:02.063Z,1.79
2022-10-21T04:55:33.303Z,1.87
2022-10-21T04:58:02.115Z,1.79
2022-10-21T05:00:30.545Z,1.81
2022-10-21T05:03:00.467Z,2.01
2022-10-21T05:05:30.468Z,2.05
2022-10-21T05:07:58.814Z,1.99
2022-10-21T05:10:31.386Z,1.99
2022-10-21T05:13:00.569Z,2.03
2022-10-21T05:15:29.156Z,1.80
2022-10-21T05:17:57.270Z,2.01
2022-10-21T05:20:26.419Z,2.19
2022-10-21T05:22:56.489Z,2.22
2022-10-21T05:25:25.026Z,2.11
2022-10-21T05:27:54.044Z,2.23
2022-10-21T05:30:24.927Z,2.17
2022-10-21T05:33:02.332Z,2.29
2022-10-21T05:35:32.730Z,2.22
2022-10-21T05:38:05.615Z,1.90
2022-10-21T05:40:39.148Z,2.04
2022-10-21T05:43:11.635Z,2.22
2022-10-21T05:45:40.334Z,2.43
2022-10-21T05:48:14.598Z,2.47
2022-10-21T05:50:51.293Z,2.36
2022-10-21T05:53:24.997Z,2.25
2022-10-21T05:56:04.774Z,2.19
2022-10-21T05:58:35.682Z,2.52
2022-10-21T06:01:08.459Z,2.47
2022-10-21T06:03:43.572Z,2.66
2022-10-21T06:06:17.203Z,2.63
2022-10-21T06:08:48.249Z,2.82
2022-10-21T06:11:19.809Z,2.89
2022-10-21T06:13:49.524Z,2.68
2022-10-21T06:16:17.426Z,3.11
2022-10-21T06:18:49.287Z,3.15
2022-10-21T06:21:22.613Z,3.31
2022-10-21T06:23:56.138Z,2.99
2022-10-21T06:26:27.586Z,3.27
2022-10-21T06:29:03.804Z,3.17
2022-10-21T06:31:37.721Z,3.23
2022-10-21T06:34:08.650Z,2.95
2022-10-21T06:36:41.405Z,3.05
2022-10-21T06:39:13.788Z,3.37
2022-10-21T06:41:45.908Z,3.49
2022-10-21T06:44:23.102Z,3.29
2022-10-21T06:46:54.565Z,3.48
2022-10-21T06:49:25.663Z,3.67
2022-10-21T06:54:59.006Z,3.75
2022-10-21T06:57:29.324Z,3.95
2022-10-21T07:02:58.044Z,3.94
2022-10-21T07:05:30.906Z,3.81
2022-10-21T07:08:07.414Z,3.83
2022-10-21T07:13:37.873Z,3.68
2022-10-21T07:16:21.085Z,3.83
2022-10-21T07:19:00.000Z,3.78
2022-10-21T07:21:33.350Z,3.73
2022-10-21T07:24:09.541Z,3.92
2022-10-21T07:26:40.361Z,3.91
2022-10-21T07:29:10.283Z,4.12
2022-10-21T07:31:45.065Z,4.30
2022-10-21T07:34:15.884Z,4.32
2022-10-21T07:36:52.200Z,4.40
2022-10-21T07:39:28.801Z,4.31
2022-10-21T07:41:59.729Z,4.39
2022-10-21T07:44:41.468Z,4.34
2022-10-21T07:47:18.849Z,4.31
2022-10-21T07:49:51.152Z,4.43
2022-10-21T07:52:33.701Z,4.55
2022-10-21T07:55:13.051Z,4.37
2022-10-21T07:57:51.677Z,4.45
2022-10-21T08:00:23.130Z,4.09
2022-10-21T08:02:58.203Z,4.69
2022-10-21T08:05:35.845Z,4.84
2022-10-21T08:08:18.116Z,5.00
2022-10-21T08:10:58.743Z,4.95
2022-10-21T08:13:38.211Z,4.92
2022-10-21T08:16:10.542Z,5.02
2022-10-21T08:18:50.714Z,5.45
2022-10-21T08:21:27.249Z,5.51
2022-10-21T08:24:01.809Z,5.36
2022-10-21T08:26:37.864Z,5.37
2022-10-21T08:29:17.085Z,5.79
2022-10-21T08:31:51.618Z,5.61
2022-10-21T08:34:22.986Z,5.70
2022-10-21T08:36:54.437Z,5.59
2022-10-21T08:39:25.215Z,5.63
2022-10-21T08:42:28.285Z,5.18
2022-10-21T08:45:07.319Z,4.97
2022-10-21T08:47:52.557Z,4.93
2022-10-21T08:50:33.969Z,5.14
2022-10-21T08:53:07.464Z,5.21
2022-10-21T08:55:52.654Z,5.17
2022-10-21T08:58:28.972Z,4.81
2022-10-21T09:01:17.263Z,4.45
2022-10-21T09:04:24.531Z,4.60
2022-10-21T09:07:15.244Z,4.62
2022-10-21T09:10:25.733Z,4.18
2022-10-21T09:13:10.212Z,4.21
2022-10-21T09:16:00.728Z,4.51
2022-10-21T09:18:59.991Z,4.91
2022-10-21T09:21:43.870Z,4.78
2022-10-21T09:24:25.168Z,4.71
2022-10-21T09:27:10.832Z,4.65
2022-10-21T09:30:10.250Z,4.45
2022-10-21T09:32:52.076Z,4.53
2022-10-21T09:35:50.622Z,4.61
2022-10-21T09:38:33.122Z,4.71
2022-10-21T09:41:10.031Z,4.62
2022-10-21T09:43:37.852Z,4.38
2022-10-21T09:46:20.347Z,4.62
2022-10-21T09:51:51.967Z,4.87
2022-10-21T09:54:27.254Z,4.77
2022-10-21T09:57:25.353Z,4.82
2022-10-21T10:00:02.786Z,4.88
2022-10-21T10:02:51.535Z,4.65
2022-10-21T10:05:54.292Z,4.91
2022-10-21T10:08:34.734Z,4.93
2022-10-21T10:11:15.207Z,5.05
2022-10-21T10:13:51.284Z,4.90
2022-10-21T10:16:35.684Z,5.15
2022-10-21T10:19:27.527Z,5.02
2022-10-21T10:22:19.662Z,4.85
2022-10-21T10:24:58.668Z,4.65
2022-10-21T10:27:41.001Z,4.42
2022-10-21T10:30:25.408Z,4.60
2022-10-21T10:33:11.071Z,4.37
2022-10-21T10:36:05.609Z,4.46
2022-10-21T10:39:03.210Z,4.27
2022-10-21T10:41:44.452Z,4.38
2022-10-21T10:44:46.108Z,4.71
2022-10-21T10:47:35.985Z,4.36
2022-10-21T10:50:43.805Z,4.74
2022-10-21T10:53:36.682Z,5.12
2022-10-21T10:56:43.467Z,4.87
2022-10-21T10:59:45.192Z,4.77
2022-10-21T11:02:29.626Z,4.92
2022-10-21T11:05:26.007Z,5.09
2022-10-21T11:08:15.898Z,4.79
2022-10-21T11:11:13.153Z,4.88
2022-10-21T11:13:54.221Z,5.00
2022-10-21T11:17:00.187Z,5.18
2022-10-21T11:20:12.192Z,5.15
2022-10-21T11:23:29.509Z,5.29
2022-10-21T11:26:49.493Z,5.35
2022-10-21T11:29:38.573Z,4.79
2022-10-21T11:32:29.230Z,4.71
2022-10-21T11:35:18.811Z,4.81
2022-10-21T11:38:28.727Z,5.11
2022-10-21T11:41:27.281Z,4.87
2022-10-21T11:44:16.976Z,5.04
2022-10-21T11:47:15.039Z,4.94
2022-10-21T11:49:51.963Z,4.88
2022-10-21T11:52:36.233Z,4.98
2022-10-21T11:55:26.064Z,5.47
2022-10-21T11:58:12.600Z,5.28
2022-10-21T12:01:12.716Z,5.31
2022-10-21T12:04:11.188Z,5.32
2022-10-21T12:06:59.444Z,5.38
2022-10-21T12:09:53.379Z,5.07
2022-10-21T12:12:43.309Z,4.97
2022-10-21T12:15:33.572Z,5.13
2022-10-21T12:18:22.142Z,5.09
2022-10-21T12:21:02.356Z,5.20
2022-10-21T12:26:40.401Z,5.36
2022-10-21T12:29:49.814Z,5.47
2022-10-21T12:33:00.736Z,5.31
2022-10-21T12:36:05.479Z,5.45
2022-10-21T12:38:57.391Z,5.33
2022-10-21T12:41:42.795Z,5.28
2022-10-21T12:44:29.311Z,5.24
2022-10-21T12:47:33.352Z,5.23
2022-10-21T12:50:34.031Z,5.08
2022-10-21T12:53:42.038Z,5.13
2022-10-21T12:56:17.559Z,5.21
2022-10-21T12:59:13.573Z,5.15
2022-10-21T13:02:15.065Z,5.03
2022-10-21T13:04:50.934Z,5.11
2022-10-21T13:07:37.367Z,5.25
2022-10-21T13:10:25.347Z,5.22
2022-10-21T13:13:29.077Z,5.23
2022-10-21T13:16:33.242Z,5.20
2022-10-21T13:19:22.079Z,5.17
2022-10-21T13:22:10.685Z,4.96
2022-10-21T13:24:49.119Z,4.91
2022-10-21T13:30:36.234Z,4.65
2022-10-21T13:33:57.861Z,4.55
2022-10-21T13:36:46.510Z,4.43
2022-10-21T13:39:50.769Z,4.49
2022-10-21T13:42:43.887Z,4.43
2022-10-21T13:45:29.078Z,4.36
2022-10-21T13:48:25.528Z,4.42
2022-10-21T13:51:02.478Z,4.38
2022-10-21T13:53:46.307Z,4.31
2022-10-21T13:56:32.085Z,4.32
2022-10-21T13:59:47.106Z,4.25
2022-10-21T14:02:31.617Z,4.19
2022-10-21T14:05:32.540Z,4.16
2022-10-21T14:08:23.415Z,4.05
2022-10-21T14:10:58.377Z,4.06
2022-10-21T14:13:33.024Z,3.96
2022-10-21T14:16:18.836Z,3.86
2022-10-21T14:18:56.173Z,3.81
2022-10-21T14:21:36.189Z,3.73
2022-10-21T14:24:28.974Z,3.58
2022-10-21T14:27:08.453Z,3.59
2022-10-21T14:29:47.406Z,3.63
2022-10-21T14:32:33.508Z,3.54
2022-10-21T14:35:16.304Z,3.55
2022-10-21T14:38:01.913Z,3.53
2022-10-21T14:40:38.138Z,3.54
2022-10-21T14:43:26.456Z,3.55
2022-10-21T14:46:10.221Z,3.56
2022-10-21T14:49:05.431Z,3.57
2022-10-21T14:51:39.234Z,3.56
2022-10-21T14:54:44.940Z,3.59
2022-10-21T14:57:45.003Z,3.61
2022-10-21T15:00:47.750Z,3.59
2022-10-21T15:03:28.495Z,3.57
2022-10-21T15:06:17.170Z,3.53
2022-10-21T15:09:23.791Z,3.51
2022-10-21T15:12:24.644Z,3.49
2022-10-21T15:15:21.457Z,3.42
2022-10-21T15:18:08.382Z,3.52
2022-10-21T15:21:15.350Z,3.55
2022-10-21T15:23:56.833Z,3.57
2022-10-21T15:26:33.155Z,3.65
2022-10-21T15:29:32.233Z,3.63
2022-10-21T15:32:08.861Z,3.63
2022-10-21T15:34:42.971Z,3.62
2022-10-21T15:37:16.587Z,3.63
2022-10-21T15:39:53.533Z,3.63
2022-10-21T15:42:28.715Z,3.66
2022-10-21T15:45:19.633Z,3.63
2022-10-21T15:47:56.680Z,3.64
2022-10-21T15:50:32.593Z,3.60
2022-10-21T15:53:05.753Z,3.56
2022-10-21T15:55:41.838Z,3.49
2022-10-21T15:58:15.422Z,3.51
2022-10-21T16:00:49.333Z,3.45
2022-10-21T16:03:42.681Z,3.48
2022-10-21T16:06:18.182Z,3.49
2022-10-21T16:09:00.308Z,3.48
2022-10-21T16:11:41.300Z,3.49
2022-10-21T16:14:20.538Z,3.48
2022-10-21T16:16:57.500Z,3.53
2022-10-21T16:19:40.839Z,3.54
2022-10-21T16:22:24.498Z,3.58
2022-10-21T16:25:12.551Z,3.59
2022-10-21T16:27:56.893Z,3.58
2022-10-21T16:30:37.437Z,3.61
2022-10-21T16:33:19.582Z,3.63
2022-10-21T16:35:54.786Z,3.62
2022-10-21T16:38:33.742Z,3.69
2022-10-21T16:41:18.614Z,3.69
2022-10-21T16:43:58.532Z,3.69
2022-10-21T16:46:48.464Z,3.65
2022-10-21T16:49:27.849Z,3.68
2022-10-21T16:52:03.831Z,3.70
2022-10-21T16:54:36.915Z,3.70
2022-10-21T16:57:11.603Z,3.70
2022-10-21T16:59:52.008Z,3.67
2022-10-21T17:02:55.262Z,3.69
2022-10-21T17:08:21.894Z,3.72
2022-10-21T17:11:09.344Z,3.69
2022-10-21T17:13:42.835Z,3.67
2022-10-21T17:16:20.149Z,3.69
2022-10-21T17:18:58.592Z,3.69
2022-10-21T17:21:45.248Z,3.71
2022-10-21T17:24:17.955Z,3.68
2022-10-21T17:26:48.269Z,3.69
2022-10-21T17:29:28.902Z,3.73
2022-10-21T17:32:02.366Z,3.74
2022-10-21T17:34:44.698Z,3.72
2022-10-21T17:37:23.207Z,3.75
2022-10-21T17:40:00.405Z,3.67
2022-10-21T17:42:28.279Z,3.55
2022-10-21T17:45:03.759Z,3.59
2022-10-21T17:47:40.083Z,3.66
2022-10-21T17:50:11.540Z,3.68
2022-10-21T17:52:47.131Z,3.65
2022-10-21T17:55:33.823Z,3.67
2022-10-21T17:58:09.467Z,3.70
2022-10-21T18:00:47.029Z,3.66
2022-10-21T18:03:33.424Z,3.69
2022-10-21T18:06:17.203Z,3.71
2022-10-21T18:08:49.316Z,3.72
2022-10-21T18:11:24.845Z,3.67
2022-10-21T18:13:59.925Z,3.70
2022-10-21T18:16:37.925Z,3.71
2022-10-21T18:19:10.720Z,3.72
2022-10-21T18:21:52.186Z,3.69
2022-10-21T18:24:22.786Z,3.63
2022-10-21T18:26:54.885Z,3.65
2022-10-21T18:29:26.880Z,3.67
2022-10-21T18:31:56.929Z,3.65
2022-10-21T18:34:37.532Z,3.66
2022-10-21T18:37:14.606Z,3.72
2022-10-21T18:39:49.671Z,3.76
2022-10-21T18:42:30.154Z,3.80
2022-10-21T18:45:09.131Z,3.74
2022-10-21T18:47:48.582Z,3.70
2022-10-21T18:50:26.592Z,3.65
2022-10-21T18:53:08.966Z,3.60
2022-10-21T18:55:44.314Z,3.56
2022-10-21T18:58:17.221Z,3.53
2022-10-21T19:00:52.860Z,3.51
2022-10-21T19:03:31.935Z,3.51
2022-10-21T19:06:31.626Z,3.49
2022-10-21T19:09:03.087Z,3.40
2022-10-21T19:11:36.927Z,3.50
2022-10-21T19:14:14.276Z,3.46
2022-10-21T19:16:47.453Z,3.41
2022-10-21T19:19:26.009Z,3.55
2022-10-21T19:22:08.848Z,3.56
2022-10-21T19:24:48.079Z,3.55
2022-10-21T19:27:22.852Z,3.55
2022-10-21T19:29:54.157Z,3.57
2022-10-21T19:32:24.695Z,3.56
2022-10-21T19:34:58.660Z,3.52
2022-10-21T19:37:33.970Z,3.56
2022-10-21T19:40:09.324Z,3.56
2022-10-21T19:42:42.137Z,3.53
2022-10-21T19:45:21.028Z,3.61
2022-10-21T19:47:58.455Z,3.62
2022-10-21T19:50:32.595Z,3.58
2022-10-21T19:53:04.074Z,3.59
2022-10-21T19:55:32.985Z,3.62
2022-10-21T19:58:13.130Z,3.58
2022-10-21T20:00:48.214Z,3.62
2022-10-21T20:03:25.621Z,3.63
2022-10-21T20:06:00.244Z,3.63
2022-10-21T20:08:30.261Z,3.65
2022-10-21T20:11:06.762Z,3.62
2022-10-21T20:13:40.130Z,3.65
2022-10-21T20:16:20.541Z,3.64
2022-10-21T20:18:50.469Z,3.67
2022-10-21T20:21:25.299Z,3.64
2022-10-21T20:24:02.882Z,3.57
2022-10-21T20:26:31.908Z,3.60
2022-10-21T20:29:06.012Z,3.66
2022-10-21T20:31:37.791Z,3.67
2022-10-21T20:34:06.032Z,3.68
2022-10-21T20:36:37.887Z,3.67
2022-10-21T20:39:12.639Z,3.66
2022-10-21T20:41:42.220Z,3.61
2022-10-21T20:44:19.454Z,3.64
2022-10-21T20:46:49.595Z,3.66
2022-10-21T20:49:20.276Z,3.68
2022-10-21T20:51:51.089Z,3.67
2022-10-21T20:54:24.566Z,3.70
2022-10-21T20:56:55.543Z,3.67
2022-10-21T20:59:25.457Z,3.63
2022-10-21T21:01:55.078Z,3.67
2022-10-21T21:04:25.489Z,3.67
2022-10-21T21:06:54.135Z,3.66
2022-10-21T21:12:13.173Z,3.69
2022-10-21T21:14:42.068Z,3.72
2022-10-21T21:17:13.629Z,3.70
2022-10-21T21:19:42.642Z,3.75
2022-10-21T21:22:10.511Z,3.74
2022-10-21T21:24:39.467Z,3.81
2022-10-21T21:27:08.358Z,3.80
2022-10-21T21:29:36.889Z,3.83
2022-10-21T21:32:05.422Z,3.82
2022-10-21T21:34:34.125Z,3.81
2022-10-21T21:37:02.219Z,3.83
2022-10-21T21:39:30.427Z,3.79
2022-10-21T21:41:59.866Z,3.79
2022-10-21T21:44:31.792Z,3.76
2022-10-21T21:47:00.137Z,3.63
2022-10-21T21:49:28.327Z,3.49
2022-10-21T21:51:59.490Z,3.36
2022-10-21T21:54:27.837Z,3.21
2022-10-21T21:57:15.970Z,3.23
2022-10-21T21:59:44.324Z,3.26
2022-10-21T22:02:12.027Z,3.31
2022-10-21T22:04:40.787Z,3.36
2022-10-21T22:07:08.578Z,3.40
2022-10-21T22:09:36.281Z,3.42
2022-10-21T22:12:04.762Z,3.37
2022-10-21T22:14:32.687Z,3.30
2022-10-21T22:17:00.682Z,3.26
2022-10-21T22:19:28.964Z,3.25
2022-10-21T22:21:58.312Z,3.18
2022-10-21T22:27:05.865Z,3.21
2022-10-21T22:29:33.914Z,3.27
2022-10-21T22:32:01.799Z,3.29
2022-10-21T22:34:30.050Z,3.26
2022-10-21T22:36:57.975Z,3.38
2022-10-21T22:39:25.983Z,3.39
2022-10-21T22:41:54.133Z,3.43
2022-10-21T22:44:22.502Z,3.47
2022-10-21T22:46:50.703Z,3.48
2022-10-21T22:49:18.913Z,3.48
2022-10-21T22:54:47.961Z,3.49
2022-10-21T22:57:14.243Z,3.49
2022-10-21T22:59:44.169Z,3.53
2022-10-21T23:02:12.671Z,3.57
2022-10-21T23:04:40.610Z,3.59
2022-10-21T23:07:08.887Z,3.57
2022-10-21T23:09:36.854Z,3.61
2022-10-21T23:12:05.479Z,3.65
2022-10-21T23:14:33.853Z,3.65
2022-10-21T23:17:01.673Z,3.69
2022-10-21T23:19:29.649Z,3.61
2022-10-21T23:21:57.937Z,3.71
2022-10-21T23:24:25.812Z,3.69
2022-10-21T23:26:59.157Z,3.71
2022-10-21T23:29:30.183Z,3.72
2022-10-21T23:32:01.023Z,3.74
2022-10-21T23:34:28.996Z,3.74
2022-10-21T23:36:57.616Z,3.66
2022-10-21T23:39:25.518Z,3.74
2022-10-21T23:41:53.420Z,3.74
2022-10-21T23:44:21.507Z,3.75
2022-10-21T23:46:49.404Z,3.73
2022-10-21T23:49:17.321Z,3.71
2022-10-21T23:51:45.362Z,3.72
2022-10-21T23:54:13.488Z,3.70
2022-10-21T23:56:41.488Z,3.64
2022-10-21T23:59:09.880Z,3.65
